sensor_id;sensor_type;location;lat;lon;timestamp;temperature;humidity
19522;DHT22;9905;52.126;5.596;2023-11-19T00:01:33;13.40;99.90
19522;DHT22;9905;52.126;5.596;2023-11-19T00:04:00;13.40;99.90
19522;DHT22;9905;52.126;5.596;2023-11-19T00:06:27;13.40;99.90
19522;DHT22;9905;52.126;5.596;2023-11-19T00:08:54;13.40;99.90
19522;DHT22;9905;52.126;5.596;2023-11-19T00:11:21;13.40;99.90
19522;DHT22;9905;52.126;5.596;2023-11-19T00:13:47;13.40;99.90
19522;DHT22;9905;52.126;5.596;2023-11-19T00:16:16;13.40;99.90
19522;DHT22;9905;52.126;5.596;2023-11-19T00:18:43;13.40;99.90
19522;DHT22;9905;52.126;5.596;2023-11-19T00:21:09;13.40;99.90
19522;DHT22;9905;52.126;5.596;2023-11-19T00:23:36;13.40;99.90
19522;DHT22;9905;52.126;5.596;2023-11-19T00:26:04;13.40;99.90
19522;DHT22;9905;52.126;5.596;2023-11-19T00:28:31;13.40;99.90
19522;DHT22;9905;52.126;5.596;2023-11-19T00:30:59;13.40;99.90
19522;DHT22;9905;52.126;5.596;2023-11-19T00:33:27;13.30;99.90
19522;DHT22;9905;52.126;5.596;2023-11-19T00:35:53;13.30;99.90
19522;DHT22;9905;52.126;5.596;2023-11-19T00:38:19;13.30;99.90
19522;DHT22;9905;52.126;5.596;2023-11-19T00:40:46;13.30;99.90
19522;DHT22;9905;52.126;5.596;2023-11-19T00:43:13;13.30;99.90
19522;DHT22;9905;52.126;5.596;2023-11-19T00:45:40;13.30;99.90
19522;DHT22;9905;52.126;5.596;2023-11-19T00:48:06;13.30;99.90
19522;DHT22;9905;52.126;5.596;2023-11-19T00:50:35;13.30;99.90
19522;DHT22;9905;52.126;5.596;2023-11-19T00:53:01;13.30;99.90
19522;DHT22;9905;52.126;5.596;2023-11-19T00:55:29;13.30;99.90
19522;DHT22;9905;52.126;5.596;2023-11-19T00:57:56;13.30;99.90
19522;DHT22;9905;52.126;5.596;2023-11-19T01:00:23;13.30;99.90
19522;DHT22;9905;52.126;5.596;2023-11-19T01:02:52;13.30;99.90
19522;DHT22;9905;52.126;5.596;2023-11-19T01:05:19;13.30;99.90
19522;DHT22;9905;52.126;5.596;2023-11-19T01:07:49;13.30;99.90
19522;DHT22;9905;52.126;5.596;2023-11-19T01:10:18;13.30;99.90
19522;DHT22;9905;52.126;5.596;2023-11-19T01:12:45;13.30;99.90
19522;DHT22;9905;52.126;5.596;2023-11-19T01:15:12;13.30;99.90
19522;DHT22;9905;52.126;5.596;2023-11-19T01:17:39;13.30;99.90
19522;DHT22;9905;52.126;5.596;2023-11-19T01:20:06;13.30;99.90
19522;DHT22;9905;52.126;5.596;2023-11-19T01:22:37;13.20;99.90
19522;DHT22;9905;52.126;5.596;2023-11-19T01:25:06;13.20;99.90
19522;DHT22;9905;52.126;5.596;2023-11-19T01:27:33;13.30;99.90
19522;DHT22;9905;52.126;5.596;2023-11-19T01:30:01;13.30;99.90
19522;DHT22;9905;52.126;5.596;2023-11-19T01:32:29;13.30;99.90
19522;DHT22;9905;52.126;5.596;2023-11-19T01:34:55;13.30;99.90
19522;DHT22;9905;52.126;5.596;2023-11-19T01:37:22;13.30;99.90
19522;DHT22;9905;52.126;5.596;2023-11-19T01:39:49;13.30;99.90
19522;DHT22;9905;52.126;5.596;2023-11-19T01:42:17;13.30;99.90
19522;DHT22;9905;52.126;5.596;2023-11-19T01:44:55;13.30;99.90
19522;DHT22;9905;52.126;5.596;2023-11-19T01:47:24;13.30;99.90
19522;DHT22;9905;52.126;5.596;2023-11-19T01:49:51;13.30;99.90
19522;DHT22;9905;52.126;5.596;2023-11-19T01:52:18;13.30;99.90
19522;DHT22;9905;52.126;5.596;2023-11-19T01:54:46;13.30;99.90
19522;DHT22;9905;52.126;5.596;2023-11-19T01:57:13;13.30;99.90
19522;DHT22;9905;52.126;5.596;2023-11-19T01:59:42;13.30;99.90
19522;DHT22;9905;52.126;5.596;2023-11-19T02:02:09;13.30;99.90
19522;DHT22;9905;52.126;5.596;2023-11-19T02:04:37;13.30;99.90
19522;DHT22;9905;52.126;5.596;2023-11-19T02:07:04;13.30;99.90
19522;DHT22;9905;52.126;5.596;2023-11-19T02:09:31;13.30;99.90
19522;DHT22;9905;52.126;5.596;2023-11-19T02:11:58;13.20;99.90
19522;DHT22;9905;52.126;5.596;2023-11-19T02:14:25;13.20;99.90
19522;DHT22;9905;52.126;5.596;2023-11-19T02:16:53;13.20;99.90
19522;DHT22;9905;52.126;5.596;2023-11-19T02:19:20;13.20;99.90
19522;DHT22;9905;52.126;5.596;2023-11-19T02:21:47;13.10;99.90
19522;DHT22;9905;52.126;5.596;2023-11-19T02:24:17;13.20;99.90
19522;DHT22;9905;52.126;5.596;2023-11-19T02:26:51;13.20;99.90
19522;DHT22;9905;52.126;5.596;2023-11-19T02:29:23;13.20;99.90
19522;DHT22;9905;52.126;5.596;2023-11-19T02:31:50;13.10;99.90
19522;DHT22;9905;52.126;5.596;2023-11-19T02:34:16;13.10;99.90
19522;DHT22;9905;52.126;5.596;2023-11-19T02:36:43;13.10;99.90
19522;DHT22;9905;52.126;5.596;2023-11-19T02:39:12;13.10;99.90
19522;DHT22;9905;52.126;5.596;2023-11-19T02:41:40;13.00;99.90
19522;DHT22;9905;52.126;5.596;2023-11-19T02:44:07;13.00;99.90
19522;DHT22;9905;52.126;5.596;2023-11-19T02:46:35;13.00;99.90
19522;DHT22;9905;52.126;5.596;2023-11-19T02:49:01;13.00;99.90
19522;DHT22;9905;52.126;5.596;2023-11-19T02:51:28;13.00;99.90
19522;DHT22;9905;52.126;5.596;2023-11-19T02:53:56;12.90;99.90
19522;DHT22;9905;52.126;5.596;2023-11-19T02:56:22;12.90;99.90
19522;DHT22;9905;52.126;5.596;2023-11-19T02:58:52;12.90;99.90
19522;DHT22;9905;52.126;5.596;2023-11-19T03:01:23;12.80;99.90
19522;DHT22;9905;52.126;5.596;2023-11-19T03:03:57;12.80;99.90
19522;DHT22;9905;52.126;5.596;2023-11-19T03:06:24;12.80;99.90
19522;DHT22;9905;52.126;5.596;2023-11-19T03:08:51;12.80;99.90
19522;DHT22;9905;52.126;5.596;2023-11-19T03:11:17;12.70;99.90
19522;DHT22;9905;52.126;5.596;2023-11-19T03:13:44;12.70;99.90
19522;DHT22;9905;52.126;5.596;2023-11-19T03:16:12;12.70;99.90
19522;DHT22;9905;52.126;5.596;2023-11-19T03:18:39;12.70;99.90
19522;DHT22;9905;52.126;5.596;2023-11-19T03:21:07;12.70;99.90
19522;DHT22;9905;52.126;5.596;2023-11-19T03:23:34;12.60;99.90
19522;DHT22;9905;52.126;5.596;2023-11-19T03:26:01;12.60;99.90
19522;DHT22;9905;52.126;5.596;2023-11-19T03:28:31;12.50;99.90
19522;DHT22;9905;52.126;5.596;2023-11-19T03:30:58;12.50;99.90
19522;DHT22;9905;52.126;5.596;2023-11-19T03:33:24;12.40;99.90
19522;DHT22;9905;52.126;5.596;2023-11-19T03:35:53;12.40;99.90
19522;DHT22;9905;52.126;5.596;2023-11-19T03:38:23;12.40;99.90
19522;DHT22;9905;52.126;5.596;2023-11-19T03:40:49;12.30;99.90
19522;DHT22;9905;52.126;5.596;2023-11-19T03:43:16;12.30;99.90
19522;DHT22;9905;52.126;5.596;2023-11-19T03:45:44;12.30;99.90
19522;DHT22;9905;52.126;5.596;2023-11-19T03:48:11;12.20;99.90
19522;DHT22;9905;52.126;5.596;2023-11-19T03:50:38;12.20;99.90
19522;DHT22;9905;52.126;5.596;2023-11-19T03:53:05;12.10;99.90
19522;DHT22;9905;52.126;5.596;2023-11-19T03:55:33;12.10;99.90
19522;DHT22;9905;52.126;5.596;2023-11-19T03:57:59;12.10;99.90
19522;DHT22;9905;52.126;5.596;2023-11-19T04:00:26;12.00;99.90
19522;DHT22;9905;52.126;5.596;2023-11-19T04:02:53;12.00;99.90
19522;DHT22;9905;52.126;5.596;2023-11-19T04:05:20;11.90;99.90
19522;DHT22;9905;52.126;5.596;2023-11-19T04:07:46;11.90;99.90
19522;DHT22;9905;52.126;5.596;2023-11-19T04:10:13;11.90;99.90
19522;DHT22;9905;52.126;5.596;2023-11-19T04:12:43;11.80;99.90
19522;DHT22;9905;52.126;5.596;2023-11-19T04:15:11;11.80;99.90
19522;DHT22;9905;52.126;5.596;2023-11-19T04:17:38;11.80;99.90
19522;DHT22;9905;52.126;5.596;2023-11-19T04:20:06;11.80;99.90
19522;DHT22;9905;52.126;5.596;2023-11-19T04:22:36;11.80;99.90
19522;DHT22;9905;52.126;5.596;2023-11-19T04:25:03;11.80;99.90
19522;DHT22;9905;52.126;5.596;2023-11-19T04:27:30;11.80;99.90
19522;DHT22;9905;52.126;5.596;2023-11-19T04:29:59;11.80;99.90
19522;DHT22;9905;52.126;5.596;2023-11-19T04:32:27;11.80;99.90
19522;DHT22;9905;52.126;5.596;2023-11-19T04:34:54;11.80;99.90
19522;DHT22;9905;52.126;5.596;2023-11-19T04:37:21;11.80;99.90
19522;DHT22;9905;52.126;5.596;2023-11-19T04:39:48;11.70;99.90
19522;DHT22;9905;52.126;5.596;2023-11-19T04:42:14;11.70;99.90
19522;DHT22;9905;52.126;5.596;2023-11-19T04:44:43;11.70;99.90
19522;DHT22;9905;52.126;5.596;2023-11-19T04:47:11;11.70;99.90
19522;DHT22;9905;52.126;5.596;2023-11-19T04:49:40;11.70;99.90
19522;DHT22;9905;52.126;5.596;2023-11-19T04:52:08;11.60;99.90
19522;DHT22;9905;52.126;5.596;2023-11-19T04:54:35;11.60;99.90
19522;DHT22;9905;52.126;5.596;2023-11-19T04:57:02;11.60;99.90
19522;DHT22;9905;52.126;5.596;2023-11-19T04:59:29;11.60;99.90
19522;DHT22;9905;52.126;5.596;2023-11-19T05:01:55;11.60;99.90
19522;DHT22;9905;52.126;5.596;2023-11-19T05:04:24;11.60;99.90
19522;DHT22;9905;52.126;5.596;2023-11-19T05:06:51;11.50;99.90
19522;DHT22;9905;52.126;5.596;2023-11-19T05:09:18;11.50;99.90
19522;DHT22;9905;52.126;5.596;2023-11-19T05:11:45;11.50;99.90
19522;DHT22;9905;52.126;5.596;2023-11-19T05:14:12;11.50;99.90
19522;DHT22;9905;52.126;5.596;2023-11-19T05:16:39;11.50;99.90
19522;DHT22;9905;52.126;5.596;2023-11-19T05:19:06;11.40;99.90
19522;DHT22;9905;52.126;5.596;2023-11-19T05:21:34;11.50;99.90
19522;DHT22;9905;52.126;5.596;2023-11-19T05:24:01;11.40;99.90
19522;DHT22;9905;52.126;5.596;2023-11-19T05:26:30;11.40;99.90
19522;DHT22;9905;52.126;5.596;2023-11-19T05:28:57;11.40;99.90
19522;DHT22;9905;52.126;5.596;2023-11-19T05:31:24;11.40;99.90
19522;DHT22;9905;52.126;5.596;2023-11-19T05:33:50;11.40;99.90
19522;DHT22;9905;52.126;5.596;2023-11-19T05:36:17;11.40;99.90
19522;DHT22;9905;52.126;5.596;2023-11-19T05:38:45;11.40;99.90
19522;DHT22;9905;52.126;5.596;2023-11-19T05:41:12;11.40;99.90
19522;DHT22;9905;52.126;5.596;2023-11-19T05:43:39;11.40;99.90
19522;DHT22;9905;52.126;5.596;2023-11-19T05:46:06;11.40;99.90
19522;DHT22;9905;52.126;5.596;2023-11-19T05:48:34;11.30;99.90
19522;DHT22;9905;52.126;5.596;2023-11-19T05:51:01;11.30;99.90
19522;DHT22;9905;52.126;5.596;2023-11-19T05:53:28;11.30;99.90
19522;DHT22;9905;52.126;5.596;2023-11-19T05:55:56;11.30;99.90
19522;DHT22;9905;52.126;5.596;2023-11-19T05:58:24;11.30;99.90
19522;DHT22;9905;52.126;5.596;2023-11-19T06:00:54;11.20;99.90
19522;DHT22;9905;52.126;5.596;2023-11-19T06:03:21;11.20;99.90
19522;DHT22;9905;52.126;5.596;2023-11-19T06:05:48;11.20;99.90
19522;DHT22;9905;52.126;5.596;2023-11-19T06:08:15;11.20;99.90
19522;DHT22;9905;52.126;5.596;2023-11-19T06:10:42;11.20;99.90
19522;DHT22;9905;52.126;5.596;2023-11-19T06:13:10;11.20;99.90
19522;DHT22;9905;52.126;5.596;2023-11-19T06:15:37;11.10;99.90
19522;DHT22;9905;52.126;5.596;2023-11-19T06:18:04;11.20;99.90
19522;DHT22;9905;52.126;5.596;2023-11-19T06:20:32;11.20;99.90
19522;DHT22;9905;52.126;5.596;2023-11-19T06:22:59;11.20;99.90
19522;DHT22;9905;52.126;5.596;2023-11-19T06:25:26;11.20;99.90
19522;DHT22;9905;52.126;5.596;2023-11-19T06:27:53;11.20;99.90
19522;DHT22;9905;52.126;5.596;2023-11-19T06:30:21;11.20;99.90
19522;DHT22;9905;52.126;5.596;2023-11-19T06:32:48;11.10;99.90
19522;DHT22;9905;52.126;5.596;2023-11-19T06:35:14;11.10;99.90
19522;DHT22;9905;52.126;5.596;2023-11-19T06:37:41;11.10;99.90
19522;DHT22;9905;52.126;5.596;2023-11-19T06:40:09;11.10;99.90
19522;DHT22;9905;52.126;5.596;2023-11-19T06:42:37;11.10;99.90
19522;DHT22;9905;52.126;5.596;2023-11-19T06:45:05;11.10;99.90
19522;DHT22;9905;52.126;5.596;2023-11-19T06:47:33;11.10;99.90
19522;DHT22;9905;52.126;5.596;2023-11-19T06:50:00;11.10;99.90
19522;DHT22;9905;52.126;5.596;2023-11-19T06:52:31;11.00;99.90
19522;DHT22;9905;52.126;5.596;2023-11-19T06:54:57;11.00;99.90
19522;DHT22;9905;52.126;5.596;2023-11-19T06:57:24;11.00;99.90
19522;DHT22;9905;52.126;5.596;2023-11-19T06:59:51;10.90;99.90
19522;DHT22;9905;52.126;5.596;2023-11-19T07:02:18;10.90;99.90
19522;DHT22;9905;52.126;5.596;2023-11-19T07:04:46;10.90;99.90
19522;DHT22;9905;52.126;5.596;2023-11-19T07:07:13;11.00;99.90
19522;DHT22;9905;52.126;5.596;2023-11-19T07:09:41;11.00;99.90
19522;DHT22;9905;52.126;5.596;2023-11-19T07:12:08;10.90;99.90
19522;DHT22;9905;52.126;5.596;2023-11-19T07:14:35;11.00;99.90
19522;DHT22;9905;52.126;5.596;2023-11-19T07:17:02;11.00;99.90
19522;DHT22;9905;52.126;5.596;2023-11-19T07:19:28;11.00;99.90
19522;DHT22;9905;52.126;5.596;2023-11-19T07:21:56;11.00;99.90
19522;DHT22;9905;52.126;5.596;2023-11-19T07:24:23;11.00;99.90
19522;DHT22;9905;52.126;5.596;2023-11-19T07:26:50;11.10;99.90
19522;DHT22;9905;52.126;5.596;2023-11-19T07:29:17;11.10;99.90
19522;DHT22;9905;52.126;5.596;2023-11-19T07:31:44;11.10;99.90
19522;DHT22;9905;52.126;5.596;2023-11-19T07:34:11;11.10;99.90
19522;DHT22;9905;52.126;5.596;2023-11-19T07:36:37;11.10;99.90
19522;DHT22;9905;52.126;5.596;2023-11-19T07:39:06;11.10;99.90
19522;DHT22;9905;52.126;5.596;2023-11-19T07:41:34;11.10;99.90
19522;DHT22;9905;52.126;5.596;2023-11-19T07:44:00;11.10;99.90
19522;DHT22;9905;52.126;5.596;2023-11-19T07:46:27;11.10;99.90
19522;DHT22;9905;52.126;5.596;2023-11-19T07:48:54;11.10;99.90
19522;DHT22;9905;52.126;5.596;2023-11-19T07:51:20;11.10;99.90
19522;DHT22;9905;52.126;5.596;2023-11-19T07:53:47;11.10;99.90
19522;DHT22;9905;52.126;5.596;2023-11-19T07:56:16;11.10;99.90
19522;DHT22;9905;52.126;5.596;2023-11-19T07:58:42;11.10;99.90
19522;DHT22;9905;52.126;5.596;2023-11-19T08:01:09;11.10;99.90
19522;DHT22;9905;52.126;5.596;2023-11-19T08:03:36;11.10;99.90
19522;DHT22;9905;52.126;5.596;2023-11-19T08:06:04;11.10;99.90
19522;DHT22;9905;52.126;5.596;2023-11-19T08:08:30;11.20;99.90
19522;DHT22;9905;52.126;5.596;2023-11-19T08:10:59;11.20;99.90
19522;DHT22;9905;52.126;5.596;2023-11-19T08:13:27;11.30;99.90
19522;DHT22;9905;52.126;5.596;2023-11-19T08:15:53;11.30;99.90
19522;DHT22;9905;52.126;5.596;2023-11-19T08:18:20;11.30;99.90
19522;DHT22;9905;52.126;5.596;2023-11-19T08:20:47;11.30;99.90
19522;DHT22;9905;52.126;5.596;2023-11-19T08:23:18;11.30;99.90
19522;DHT22;9905;52.126;5.596;2023-11-19T08:25:44;11.30;99.90
19522;DHT22;9905;52.126;5.596;2023-11-19T08:28:11;11.40;99.90
19522;DHT22;9905;52.126;5.596;2023-11-19T08:30:39;11.40;99.90
19522;DHT22;9905;52.126;5.596;2023-11-19T08:33:06;11.40;99.90
19522;DHT22;9905;52.126;5.596;2023-11-19T08:35:33;11.40;99.90
19522;DHT22;9905;52.126;5.596;2023-11-19T08:38:00;11.40;99.90
19522;DHT22;9905;52.126;5.596;2023-11-19T08:40:27;11.40;99.90
19522;DHT22;9905;52.126;5.596;2023-11-19T08:42:55;11.50;99.90
19522;DHT22;9905;52.126;5.596;2023-11-19T08:45:22;11.50;99.90
19522;DHT22;9905;52.126;5.596;2023-11-19T08:47:50;11.50;99.90
19522;DHT22;9905;52.126;5.596;2023-11-19T08:50:17;11.50;99.90
19522;DHT22;9905;52.126;5.596;2023-11-19T08:52:43;11.50;99.90
19522;DHT22;9905;52.126;5.596;2023-11-19T08:55:10;11.60;99.90
19522;DHT22;9905;52.126;5.596;2023-11-19T08:57:39;11.60;99.90
19522;DHT22;9905;52.126;5.596;2023-11-19T09:00:07;11.60;99.90
19522;DHT22;9905;52.126;5.596;2023-11-19T09:02:34;11.60;99.90
19522;DHT22;9905;52.126;5.596;2023-11-19T09:05:02;11.70;99.90
19522;DHT22;9905;52.126;5.596;2023-11-19T09:07:29;11.70;99.90
19522;DHT22;9905;52.126;5.596;2023-11-19T09:09:55;11.80;99.90
19522;DHT22;9905;52.126;5.596;2023-11-19T09:12:22;11.80;99.90
19522;DHT22;9905;52.126;5.596;2023-11-19T09:14:49;11.80;99.90
19522;DHT22;9905;52.126;5.596;2023-11-19T09:17:16;11.90;99.90
19522;DHT22;9905;52.126;5.596;2023-11-19T09:19:44;11.90;99.90
19522;DHT22;9905;52.126;5.596;2023-11-19T09:22:12;12.00;99.90
19522;DHT22;9905;52.126;5.596;2023-11-19T09:24:39;12.00;99.90
19522;DHT22;9905;52.126;5.596;2023-11-19T09:27:06;12.10;99.90
19522;DHT22;9905;52.126;5.596;2023-11-19T09:29:33;12.10;99.90
19522;DHT22;9905;52.126;5.596;2023-11-19T09:32:00;12.20;99.90
19522;DHT22;9905;52.126;5.596;2023-11-19T09:34:27;12.20;99.90
19522;DHT22;9905;52.126;5.596;2023-11-19T09:36:54;12.20;99.90
19522;DHT22;9905;52.126;5.596;2023-11-19T09:39:22;12.20;99.90
19522;DHT22;9905;52.126;5.596;2023-11-19T09:41:51;12.20;99.90
19522;DHT22;9905;52.126;5.596;2023-11-19T09:44:18;12.20;99.90
19522;DHT22;9905;52.126;5.596;2023-11-19T09:46:45;12.20;99.90
19522;DHT22;9905;52.126;5.596;2023-11-19T09:49:14;12.20;99.90
19522;DHT22;9905;52.126;5.596;2023-11-19T09:51:44;12.30;99.90
19522;DHT22;9905;52.126;5.596;2023-11-19T09:54:11;12.20;99.90
19522;DHT22;9905;52.126;5.596;2023-11-19T09:56:40;12.30;99.90
19522;DHT22;9905;52.126;5.596;2023-11-19T09:59:08;12.30;99.90
19522;DHT22;9905;52.126;5.596;2023-11-19T10:01:37;12.30;99.90
19522;DHT22;9905;52.126;5.596;2023-11-19T10:04:05;12.40;99.90
19522;DHT22;9905;52.126;5.596;2023-11-19T10:06:32;12.40;99.90
19522;DHT22;9905;52.126;5.596;2023-11-19T10:08:59;12.40;99.90
19522;DHT22;9905;52.126;5.596;2023-11-19T10:11:26;12.50;99.90
19522;DHT22;9905;52.126;5.596;2023-11-19T10:13:54;12.50;99.90
19522;DHT22;9905;52.126;5.596;2023-11-19T10:16:28;12.50;99.90
19522;DHT22;9905;52.126;5.596;2023-11-19T10:18:56;12.50;99.90
19522;DHT22;9905;52.126;5.596;2023-11-19T10:21:23;12.50;99.90
19522;DHT22;9905;52.126;5.596;2023-11-19T10:23:52;12.50;99.90
19522;DHT22;9905;52.126;5.596;2023-11-19T10:26:20;12.50;99.90
19522;DHT22;9905;52.126;5.596;2023-11-19T10:28:47;12.60;99.90
19522;DHT22;9905;52.126;5.596;2023-11-19T10:31:16;12.60;99.90
19522;DHT22;9905;52.126;5.596;2023-11-19T10:33:44;12.70;99.90
19522;DHT22;9905;52.126;5.596;2023-11-19T10:36:11;12.70;99.90
19522;DHT22;9905;52.126;5.596;2023-11-19T10:38:38;12.80;99.90
19522;DHT22;9905;52.126;5.596;2023-11-19T10:41:06;12.80;99.90
19522;DHT22;9905;52.126;5.596;2023-11-19T10:43:42;12.80;99.90
19522;DHT22;9905;52.126;5.596;2023-11-19T10:46:10;12.90;99.90
19522;DHT22;9905;52.126;5.596;2023-11-19T10:48:39;12.90;99.90
19522;DHT22;9905;52.126;5.596;2023-11-19T10:51:07;12.90;99.90
19522;DHT22;9905;52.126;5.596;2023-11-19T10:53:36;12.90;99.90
19522;DHT22;9905;52.126;5.596;2023-11-19T10:56:06;13.00;99.90
19522;DHT22;9905;52.126;5.596;2023-11-19T10:58:37;13.00;99.90
19522;DHT22;9905;52.126;5.596;2023-11-19T11:01:09;13.00;99.90
19522;DHT22;9905;52.126;5.596;2023-11-19T11:03:40;13.10;99.90
19522;DHT22;9905;52.126;5.596;2023-11-19T11:06:07;13.10;99.90
19522;DHT22;9905;52.126;5.596;2023-11-19T11:08:36;13.20;99.90
19522;DHT22;9905;52.126;5.596;2023-11-19T11:11:05;13.20;99.90
19522;DHT22;9905;52.126;5.596;2023-11-19T11:13:32;13.30;99.90
19522;DHT22;9905;52.126;5.596;2023-11-19T11:15:59;13.30;99.90
19522;DHT22;9905;52.126;5.596;2023-11-19T11:18:27;13.30;99.90
19522;DHT22;9905;52.126;5.596;2023-11-19T11:20:59;13.30;99.90
19522;DHT22;9905;52.126;5.596;2023-11-19T11:23:39;13.30;99.90
19522;DHT22;9905;52.126;5.596;2023-11-19T11:26:23;13.30;99.90
19522;DHT22;9905;52.126;5.596;2023-11-19T11:28:59;13.20;99.90
19522;DHT22;9905;52.126;5.596;2023-11-19T11:31:37;13.30;99.90
19522;DHT22;9905;52.126;5.596;2023-11-19T11:34:20;13.20;99.90
19522;DHT22;9905;52.126;5.596;2023-11-19T11:37:03;13.20;99.90
19522;DHT22;9905;52.126;5.596;2023-11-19T11:39:33;13.20;99.90
19522;DHT22;9905;52.126;5.596;2023-11-19T11:42:34;13.20;99.90
19522;DHT22;9905;52.126;5.596;2023-11-19T11:45:02;13.20;99.90
19522;DHT22;9905;52.126;5.596;2023-11-19T11:48:04;13.30;99.90
19522;DHT22;9905;52.126;5.596;2023-11-19T11:50:34;13.30;99.90
19522;DHT22;9905;52.126;5.596;2023-11-19T11:53:16;13.30;99.90
19522;DHT22;9905;52.126;5.596;2023-11-19T11:55:56;13.20;99.90
19522;DHT22;9905;52.126;5.596;2023-11-19T11:58:32;13.30;99.90
19522;DHT22;9905;52.126;5.596;2023-11-19T12:01:02;13.30;99.90
19522;DHT22;9905;52.126;5.596;2023-11-19T12:03:31;13.30;99.90
19522;DHT22;9905;52.126;5.596;2023-11-19T12:05:58;13.20;99.90
19522;DHT22;9905;52.126;5.596;2023-11-19T12:08:28;13.20;99.90
19522;DHT22;9905;52.126;5.596;2023-11-19T12:10:56;13.20;99.90
19522;DHT22;9905;52.126;5.596;2023-11-19T12:13:24;13.20;99.90
19522;DHT22;9905;52.126;5.596;2023-11-19T12:16:07;13.20;99.90
19522;DHT22;9905;52.126;5.596;2023-11-19T12:18:34;13.20;99.90
19522;DHT22;9905;52.126;5.596;2023-11-19T12:21:01;13.20;99.90
19522;DHT22;9905;52.126;5.596;2023-11-19T12:23:29;13.30;99.90
19522;DHT22;9905;52.126;5.596;2023-11-19T12:25:56;13.30;99.90
19522;DHT22;9905;52.126;5.596;2023-11-19T12:28:24;13.30;99.90
19522;DHT22;9905;52.126;5.596;2023-11-19T12:30:52;13.30;99.90
19522;DHT22;9905;52.126;5.596;2023-11-19T12:33:20;13.30;99.90
19522;DHT22;9905;52.126;5.596;2023-11-19T12:35:47;13.40;99.90
19522;DHT22;9905;52.126;5.596;2023-11-19T12:38:21;13.40;99.90
19522;DHT22;9905;52.126;5.596;2023-11-19T12:41:02;13.30;99.90
19522;DHT22;9905;52.126;5.596;2023-11-19T12:43:29;13.30;99.90
19522;DHT22;9905;52.126;5.596;2023-11-19T12:45:56;13.30;99.90
19522;DHT22;9905;52.126;5.596;2023-11-19T12:48:22;13.30;99.90
19522;DHT22;9905;52.126;5.596;2023-11-19T12:50:52;13.30;99.90
19522;DHT22;9905;52.126;5.596;2023-11-19T12:53:19;13.20;99.90
19522;DHT22;9905;52.126;5.596;2023-11-19T12:55:49;13.20;99.90
19522;DHT22;9905;52.126;5.596;2023-11-19T12:58:29;13.20;99.90
19522;DHT22;9905;52.126;5.596;2023-11-19T13:01:00;13.30;99.90
19522;DHT22;9905;52.126;5.596;2023-11-19T13:03:30;13.20;99.90
19522;DHT22;9905;52.126;5.596;2023-11-19T13:06:04;13.30;99.90
19522;DHT22;9905;52.126;5.596;2023-11-19T13:08:37;13.30;99.90
19522;DHT22;9905;52.126;5.596;2023-11-19T13:11:06;13.30;99.90
19522;DHT22;9905;52.126;5.596;2023-11-19T13:13:55;13.20;99.90
19522;DHT22;9905;52.126;5.596;2023-11-19T13:16:22;13.20;99.90
19522;DHT22;9905;52.126;5.596;2023-11-19T13:18:49;13.20;99.90
19522;DHT22;9905;52.126;5.596;2023-11-19T13:21:15;13.20;99.90
19522;DHT22;9905;52.126;5.596;2023-11-19T13:23:42;13.20;99.90
19522;DHT22;9905;52.126;5.596;2023-11-19T13:26:11;13.20;99.90
19522;DHT22;9905;52.126;5.596;2023-11-19T13:28:37;13.10;99.90
19522;DHT22;9905;52.126;5.596;2023-11-19T13:31:05;13.10;99.90
19522;DHT22;9905;52.126;5.596;2023-11-19T13:33:32;13.00;99.90
19522;DHT22;9905;52.126;5.596;2023-11-19T13:35:58;12.90;99.90
19522;DHT22;9905;52.126;5.596;2023-11-19T13:38:30;12.90;99.90
19522;DHT22;9905;52.126;5.596;2023-11-19T13:40:57;12.90;99.90
19522;DHT22;9905;52.126;5.596;2023-11-19T13:43:25;12.80;99.90
19522;DHT22;9905;52.126;5.596;2023-11-19T13:45:53;12.80;99.90
19522;DHT22;9905;52.126;5.596;2023-11-19T13:48:20;12.80;99.90
19522;DHT22;9905;52.126;5.596;2023-11-19T13:50:47;12.80;99.90
19522;DHT22;9905;52.126;5.596;2023-11-19T13:53:13;12.80;99.90
19522;DHT22;9905;52.126;5.596;2023-11-19T13:55:41;12.70;99.90
19522;DHT22;9905;52.126;5.596;2023-11-19T13:58:08;12.70;99.90
19522;DHT22;9905;52.126;5.596;2023-11-19T14:00:36;12.70;99.90
19522;DHT22;9905;52.126;5.596;2023-11-19T14:03:03;12.70;99.90
19522;DHT22;9905;52.126;5.596;2023-11-19T14:05:30;12.70;99.90
19522;DHT22;9905;52.126;5.596;2023-11-19T14:07:57;12.60;99.90
19522;DHT22;9905;52.126;5.596;2023-11-19T14:10:24;12.60;99.90
19522;DHT22;9905;52.126;5.596;2023-11-19T14:12:50;12.60;99.90
19522;DHT22;9905;52.126;5.596;2023-11-19T14:15:17;12.60;99.90
19522;DHT22;9905;52.126;5.596;2023-11-19T14:17:45;12.60;99.90
19522;DHT22;9905;52.126;5.596;2023-11-19T14:20:12;12.60;99.90
19522;DHT22;9905;52.126;5.596;2023-11-19T14:22:41;12.60;99.90
19522;DHT22;9905;52.126;5.596;2023-11-19T14:25:08;12.60;99.90
19522;DHT22;9905;52.126;5.596;2023-11-19T14:27:36;12.60;99.90
19522;DHT22;9905;52.126;5.596;2023-11-19T14:30:05;12.60;99.90
19522;DHT22;9905;52.126;5.596;2023-11-19T14:32:32;12.60;99.90
19522;DHT22;9905;52.126;5.596;2023-11-19T14:35:00;12.50;99.90
19522;DHT22;9905;52.126;5.596;2023-11-19T14:37:27;12.50;99.90
19522;DHT22;9905;52.126;5.596;2023-11-19T14:39:53;12.50;99.90
19522;DHT22;9905;52.126;5.596;2023-11-19T14:42:20;12.40;99.90
19522;DHT22;9905;52.126;5.596;2023-11-19T14:44:48;12.40;99.90
19522;DHT22;9905;52.126;5.596;2023-11-19T14:47:14;12.40;99.90
19522;DHT22;9905;52.126;5.596;2023-11-19T14:49:41;12.30;99.90
19522;DHT22;9905;52.126;5.596;2023-11-19T14:52:09;12.30;99.90
19522;DHT22;9905;52.126;5.596;2023-11-19T14:54:36;12.40;99.90
19522;DHT22;9905;52.126;5.596;2023-11-19T14:57:04;12.40;99.90
19522;DHT22;9905;52.126;5.596;2023-11-19T14:59:30;12.40;99.90
19522;DHT22;9905;52.126;5.596;2023-11-19T15:01:58;12.40;99.90
19522;DHT22;9905;52.126;5.596;2023-11-19T15:04:25;12.40;99.90
19522;DHT22;9905;52.126;5.596;2023-11-19T15:06:52;12.40;99.90
19522;DHT22;9905;52.126;5.596;2023-11-19T15:09:20;12.30;99.90
19522;DHT22;9905;52.126;5.596;2023-11-19T15:11:47;12.30;99.90
19522;DHT22;9905;52.126;5.596;2023-11-19T15:14:14;12.30;99.90
19522;DHT22;9905;52.126;5.596;2023-11-19T15:16:44;12.30;99.90
19522;DHT22;9905;52.126;5.596;2023-11-19T15:19:11;12.30;99.90
19522;DHT22;9905;52.126;5.596;2023-11-19T15:21:38;12.30;99.90
19522;DHT22;9905;52.126;5.596;2023-11-19T15:24:06;12.30;99.90
19522;DHT22;9905;52.126;5.596;2023-11-19T15:26:34;12.30;99.90
19522;DHT22;9905;52.126;5.596;2023-11-19T15:29:01;12.30;99.90
19522;DHT22;9905;52.126;5.596;2023-11-19T15:31:28;12.30;99.90
19522;DHT22;9905;52.126;5.596;2023-11-19T15:33:55;12.30;99.90
19522;DHT22;9905;52.126;5.596;2023-11-19T15:36:22;12.30;99.90
19522;DHT22;9905;52.126;5.596;2023-11-19T15:38:48;12.30;99.90
19522;DHT22;9905;52.126;5.596;2023-11-19T15:41:15;12.30;99.90
19522;DHT22;9905;52.126;5.596;2023-11-19T15:43:43;12.20;99.90
19522;DHT22;9905;52.126;5.596;2023-11-19T15:46:11;12.20;99.90
19522;DHT22;9905;52.126;5.596;2023-11-19T15:48:38;12.20;99.90
19522;DHT22;9905;52.126;5.596;2023-11-19T15:51:05;12.20;99.90